Time;durP1;ratioP1;P1;durP2;ratioP2;P2;SDS_P1;SDS_P2;PMS_P1;PMS_P2;Temp;Humidity;BMP_temperature;BMP_pressure;BME280_temperature;BME280_humidity;BME280_pressure;Samples;Min_cycle;Max_cycle;Signal;HPM_P1;HPM_P2
2022/10/12 00:00:24;;;;;;;8.87;4.20;;;;;;;;;;5059482;28;20181;-74
2022/10/12 00:02:51;;;;;;;15.33;4.33;;;;;;;;;;5058387;28;20213;-75
2022/10/12 00:05:17;;;;;;;7.60;3.83;;;;;;;;;;5064905;28;20706;-75
2022/10/12 00:07:44;;;;;;;8.57;3.93;;;;;;;;;;5058758;28;20250;-74
2022/10/12 00:10:10;;;;;;;8.87;3.73;;;;;;;;;;5062454;28;20181;-74
2022/10/12 00:12:36;;;;;;;5.87;3.40;;;;;;;;;;5061185;28;20208;-74
2022/10/12 00:15:02;;;;;;;7.13;3.80;;;;;;;;;;5061023;28;20181;-74
2022/10/12 00:17:28;;;;;;;8.23;3.70;;;;;;;;;;5059756;28;20780;-75
2022/10/12 00:19:55;;;;;;;7.83;3.67;;;;;;;;;;5056333;28;20351;-74
2022/10/12 00:22:21;;;;;;;4.93;3.00;;;;;;;;;;5064023;28;20201;-74
2022/10/12 00:24:47;;;;;;;9.73;3.40;;;;;;;;;;5062300;28;20542;-75
2022/10/12 00:27:13;;;;;;;6.17;3.70;;;;;;;;;;5061895;28;20176;-75
2022/10/12 00:29:39;;;;;;;9.00;4.17;;;;;;;;;;5054868;28;20189;-74
2022/10/12 00:32:06;;;;;;;7.27;3.77;;;;;;;;;;5053761;28;20592;-74
2022/10/12 00:34:32;;;;;;;9.07;3.70;;;;;;;;;;5064331;28;20216;-75
2022/10/12 00:36:58;;;;;;;5.80;3.70;;;;;;;;;;5055289;28;20186;-74
2022/10/12 00:39:24;;;;;;;9.10;4.20;;;;;;;;;;5060674;28;20203;-74
2022/10/12 00:41:50;;;;;;;6.70;3.50;;;;;;;;;;5060850;28;20217;-75
2022/10/12 00:44:35;;;;;;;8.60;4.10;;;;;;;;;;5046623;28;20189;-74
2022/10/12 00:47:07;;;;;;;10.00;3.90;;;;;;;;;;5062444;28;20185;-74
2022/10/12 00:49:34;;;;;;;7.47;3.80;;;;;;;;;;5060972;28;20832;-75
2022/10/12 00:52:02;;;;;;;10.90;4.37;;;;;;;;;;5058872;28;20201;-75
2022/10/12 00:54:34;;;;;;;7.60;3.97;;;;;;;;;;5056437;28;20197;-74
2022/10/12 00:57:02;;;;;;;8.13;3.90;;;;;;;;;;5055129;28;20238;-74
2022/10/12 00:59:31;;;;;;;7.40;4.10;;;;;;;;;;5062140;28;20608;-74
2022/10/12 01:01:57;;;;;;;6.07;3.70;;;;;;;;;;5060367;28;20222;-74
2022/10/12 01:04:24;;;;;;;6.33;3.77;;;;;;;;;;5054051;28;20431;-74
2022/10/12 01:06:50;;;;;;;6.30;3.30;;;;;;;;;;5060835;28;20570;-75
2022/10/12 01:09:18;;;;;;;8.97;4.13;;;;;;;;;;5060738;28;20177;-74
2022/10/12 01:11:44;;;;;;;6.87;3.60;;;;;;;;;;5059485;28;20227;-75
2022/10/12 01:14:10;;;;;;;8.40;3.60;;;;;;;;;;5058778;28;20189;-74
2022/10/12 01:16:46;;;;;;;7.93;3.50;;;;;;;;;;5055741;28;20650;-75
2022/10/12 01:19:22;;;;;;;7.67;3.67;;;;;;;;;;5059576;28;20233;-74
2022/10/12 01:21:54;;;;;;;6.77;3.37;;;;;;;;;;5052554;28;20308;-75
2022/10/12 01:24:20;;;;;;;6.63;3.80;;;;;;;;;;5058640;28;20641;-74
2022/10/12 01:26:46;;;;;;;9.47;3.70;;;;;;;;;;5065668;28;20185;-75
2022/10/12 01:29:18;;;;;;;5.77;3.60;;;;;;;;;;5064049;28;20188;-75
2022/10/12 01:31:57;;;;;;;7.70;3.77;;;;;;;;;;5064878;28;20326;-74
2022/10/12 01:34:28;;;;;;;7.50;3.57;;;;;;;;;;5059426;28;20181;-74
2022/10/12 01:37:01;;;;;;;9.10;3.70;;;;;;;;;;5059197;28;20786;-74
2022/10/12 01:39:31;;;;;;;8.50;3.67;;;;;;;;;;5076041;28;20594;-74
2022/10/12 01:42:00;;;;;;;7.53;3.63;;;;;;;;;;5059697;28;20288;-74
2022/10/12 01:44:26;;;;;;;7.63;3.73;;;;;;;;;;5059810;28;20175;-75
2022/10/12 01:46:53;;;;;;;7.77;3.90;;;;;;;;;;5055776;28;20177;-75
2022/10/12 01:49:22;;;;;;;7.77;3.60;;;;;;;;;;5062783;28;20234;-74
2022/10/12 01:52:07;;;;;;;7.87;4.00;;;;;;;;;;5063190;28;20204;-75
2022/10/12 01:54:56;;;;;;;7.30;3.93;;;;;;;;;;5061809;28;20282;-74
2022/10/12 01:57:34;;;;;;;5.40;3.70;;;;;;;;;;5066155;28;20189;-75
2022/10/12 02:00:04;;;;;;;6.57;3.60;;;;;;;;;;5081090;28;20206;-75
2022/10/12 02:02:36;;;;;;;7.10;3.63;;;;;;;;;;5065222;28;20901;-75
2022/10/12 02:05:11;;;;;;;7.90;3.60;;;;;;;;;;5079916;28;20554;-75
2022/10/12 02:07:43;;;;;;;7.53;3.57;;;;;;;;;;5056503;28;20250;-75
2022/10/12 02:10:14;;;;;;;6.93;3.60;;;;;;;;;;5047542;28;20238;-75
2022/10/12 02:12:42;;;;;;;8.37;4.20;;;;;;;;;;5058620;28;20210;-75
2022/10/12 02:15:10;;;;;;;7.77;3.57;;;;;;;;;;5064637;28;20173;-75
2022/10/12 02:17:38;;;;;;;8.33;3.70;;;;;;;;;;5066908;28;20246;-75
2022/10/12 02:20:05;;;;;;;7.97;4.20;;;;;;;;;;5063957;28;20182;-75
2022/10/12 02:22:34;;;;;;;7.63;3.90;;;;;;;;;;5066268;28;20263;-75
2022/10/12 02:25:02;;;;;;;11.00;4.20;;;;;;;;;;5055408;28;20181;-75
2022/10/12 02:27:29;;;;;;;13.43;3.90;;;;;;;;;;5068154;28;20216;-75
2022/10/12 02:29:55;;;;;;;8.70;4.13;;;;;;;;;;5065149;28;20186;-75
2022/10/12 02:32:21;;;;;;;8.33;4.00;;;;;;;;;;5056608;28;20240;-74
2022/10/12 02:34:53;;;;;;;8.43;4.23;;;;;;;;;;5061905;28;20710;-74
2022/10/12 02:37:35;;;;;;;6.90;3.50;;;;;;;;;;5051828;28;20653;-74
2022/10/12 02:40:06;;;;;;;9.07;4.07;;;;;;;;;;5065782;28;20220;-75
2022/10/12 02:42:35;;;;;;;12.00;4.03;;;;;;;;;;5068111;28;20213;-74
2022/10/12 02:45:04;;;;;;;8.13;3.50;;;;;;;;;;5067850;28;20272;-74
2022/10/12 02:47:31;;;;;;;10.27;4.13;;;;;;;;;;5061413;28;20181;-74
2022/10/12 02:49:59;;;;;;;9.53;4.10;;;;;;;;;;5061301;28;20455;-74
2022/10/12 02:52:25;;;;;;;9.90;3.97;;;;;;;;;;5063879;28;20197;-74
2022/10/12 02:54:51;;;;;;;7.63;3.40;;;;;;;;;;5067000;28;20193;-74
2022/10/12 02:57:17;;;;;;;6.97;3.57;;;;;;;;;;5066277;28;20527;-75
2022/10/12 02:59:44;;;;;;;6.97;3.80;;;;;;;;;;5064280;28;20518;-75
2022/10/12 03:02:10;;;;;;;8.27;3.90;;;;;;;;;;5064026;28;20205;-74
2022/10/12 03:04:36;;;;;;;8.43;3.97;;;;;;;;;;5062280;28;20640;-74
2022/10/12 03:07:03;;;;;;;7.23;3.90;;;;;;;;;;5059212;28;20184;-74
2022/10/12 03:09:29;;;;;;;9.73;4.17;;;;;;;;;;5058642;28;20177;-74
2022/10/12 03:11:55;;;;;;;7.10;3.90;;;;;;;;;;5046082;28;20726;-74
2022/10/12 03:14:21;;;;;;;7.53;3.80;;;;;;;;;;5063736;28;20243;-74
2022/10/12 03:16:48;;;;;;;9.43;3.90;;;;;;;;;;5064256;28;20428;-74
2022/10/12 03:19:14;;;;;;;7.47;3.87;;;;;;;;;;5062906;28;20192;-74
2022/10/12 03:21:40;;;;;;;6.67;4.07;;;;;;;;;;5060254;28;20201;-74
2022/10/12 03:24:07;;;;;;;12.40;4.07;;;;;;;;;;5052619;28;20174;-74
2022/10/12 03:26:33;;;;;;;6.37;3.70;;;;;;;;;;5061207;28;20201;-75
2022/10/12 03:28:59;;;;;;;6.93;3.80;;;;;;;;;;5064765;28;20173;-75
2022/10/12 03:31:25;;;;;;;10.10;3.67;;;;;;;;;;5063002;28;20260;-74
2022/10/12 03:33:51;;;;;;;7.00;4.07;;;;;;;;;;5063138;28;20188;-74
2022/10/12 03:36:18;;;;;;;8.03;3.90;;;;;;;;;;5061917;28;21071;-74
2022/10/12 03:38:44;;;;;;;7.00;3.80;;;;;;;;;;5059140;28;20427;-74
2022/10/12 03:41:10;;;;;;;9.07;3.60;;;;;;;;;;5055477;28;20216;-74
2022/10/12 03:43:36;;;;;;;9.33;4.03;;;;;;;;;;5064146;28;20218;-74
2022/10/12 03:46:02;;;;;;;9.37;4.33;;;;;;;;;;5056845;28;20311;-74
2022/10/12 03:48:28;;;;;;;9.27;3.93;;;;;;;;;;5058403;28;20195;-74
2022/10/12 03:50:55;;;;;;;7.60;3.90;;;;;;;;;;5063245;28;20735;-74
2022/10/12 03:53:21;;;;;;;7.80;4.00;;;;;;;;;;5056766;28;20201;-74
2022/10/12 03:55:47;;;;;;;10.13;4.43;;;;;;;;;;5056583;28;20197;-75
2022/10/12 03:58:13;;;;;;;8.67;4.20;;;;;;;;;;5057643;28;20258;-74
2022/10/12 04:00:40;;;;;;;13.63;4.37;;;;;;;;;;5059761;28;20181;-75
2022/10/12 04:03:06;;;;;;;10.60;3.93;;;;;;;;;;5060687;28;20201;-74
2022/10/12 04:05:32;;;;;;;9.97;4.20;;;;;;;;;;5062256;28;20561;-75
2022/10/12 04:07:58;;;;;;;7.73;4.03;;;;;;;;;;5048841;28;20177;-74
2022/10/12 04:10:24;;;;;;;7.17;3.80;;;;;;;;;;5061913;28;20204;-74
2022/10/12 04:12:51;;;;;;;9.07;4.30;;;;;;;;;;5054087;28;21025;-74
2022/10/12 04:15:17;;;;;;;8.53;4.03;;;;;;;;;;5060174;28;20184;-74
2022/10/12 04:17:44;;;;;;;8.33;3.73;;;;;;;;;;5057310;28;20185;-74
2022/10/12 04:20:10;;;;;;;10.10;4.57;;;;;;;;;;5063072;28;20343;-74
2022/10/12 04:22:37;;;;;;;9.47;4.30;;;;;;;;;;5059933;28;20217;-74
2022/10/12 04:25:03;;;;;;;7.57;3.63;;;;;;;;;;5054345;28;20184;-74
2022/10/12 04:27:29;;;;;;;7.80;4.07;;;;;;;;;;5066320;28;20572;-74
2022/10/12 04:29:55;;;;;;;5.63;3.63;;;;;;;;;;5057313;28;20178;-74
2022/10/12 04:32:21;;;;;;;8.13;3.20;;;;;;;;;;5064475;28;20254;-74
2022/10/12 04:34:48;;;;;;;6.43;3.70;;;;;;;;;;5061275;28;20181;-74
2022/10/12 04:37:14;;;;;;;10.30;4.20;;;;;;;;;;5052331;28;20182;-74
2022/10/12 04:39:40;;;;;;;9.77;4.03;;;;;;;;;;5061586;28;20185;-74
2022/10/12 04:42:06;;;;;;;8.90;4.30;;;;;;;;;;5044296;28;20346;-74
2022/10/12 04:44:32;;;;;;;10.10;4.22;;;;;;;;;;5056005;28;20455;-74
2022/10/12 04:46:59;;;;;;;9.60;4.40;;;;;;;;;;5064958;28;20264;-74
2022/10/12 04:49:25;;;;;;;9.27;4.73;;;;;;;;;;5057535;28;20177;-74
2022/10/12 04:51:51;;;;;;;9.85;4.60;;;;;;;;;;5053971;28;20433;-74
2022/10/12 04:54:18;;;;;;;8.83;4.07;;;;;;;;;;5060525;28;20204;-74
2022/10/12 04:56:44;;;;;;;9.83;4.97;;;;;;;;;;5061123;28;20624;-74
2022/10/12 04:59:10;;;;;;;7.90;4.37;;;;;;;;;;5066427;28;20265;-74
2022/10/12 05:01:36;;;;;;;11.00;4.47;;;;;;;;;;5062214;28;20688;-74
2022/10/12 05:04:02;;;;;;;8.83;4.13;;;;;;;;;;5057892;28;20232;-74
2022/10/12 05:06:28;;;;;;;7.53;4.23;;;;;;;;;;5059774;28;20208;-74
2022/10/12 05:08:54;;;;;;;11.60;4.47;;;;;;;;;;5063570;28;20563;-74
2022/10/12 05:11:21;;;;;;;7.33;4.10;;;;;;;;;;5061798;28;20601;-74
2022/10/12 05:13:47;;;;;;;9.30;4.30;;;;;;;;;;5064150;28;20185;-74
2022/10/12 05:16:13;;;;;;;9.73;4.53;;;;;;;;;;5057708;28;20657;-74
2022/10/12 05:18:39;;;;;;;7.60;4.13;;;;;;;;;;5066053;28;20204;-74
2022/10/12 05:21:05;;;;;;;9.50;4.65;;;;;;;;;;5056232;28;20448;-74
2022/10/12 05:23:31;;;;;;;8.50;4.60;;;;;;;;;;5064904;28;20213;-74
2022/10/12 05:25:57;;;;;;;9.00;4.67;;;;;;;;;;5065204;28;20189;-74
2022/10/12 05:28:24;;;;;;;6.33;4.20;;;;;;;;;;5063391;28;20185;-74
2022/10/12 05:30:51;;;;;;;9.53;4.37;;;;;;;;;;5060704;28;20189;-74
2022/10/12 05:33:17;;;;;;;9.13;4.97;;;;;;;;;;5053192;28;20201;-77
2022/10/12 05:35:43;;;;;;;9.00;4.20;;;;;;;;;;5071386;28;20185;-79
2022/10/12 05:38:10;;;;;;;7.93;4.27;;;;;;;;;;5063564;28;20210;-76
2022/10/12 05:40:36;;;;;;;10.77;4.30;;;;;;;;;;5061616;28;20185;-79
2022/10/12 05:43:02;;;;;;;7.20;4.20;;;;;;;;;;5061118;28;20273;-78
2022/10/12 05:45:28;;;;;;;8.80;4.43;;;;;;;;;;5066006;28;20181;-77
2022/10/12 05:47:54;;;;;;;7.07;4.27;;;;;;;;;;5069867;28;20173;-77
2022/10/12 05:50:20;;;;;;;8.27;4.50;;;;;;;;;;5067193;28;20174;-78
2022/10/12 05:52:47;;;;;;;9.77;4.57;;;;;;;;;;5069343;28;20279;-78
2022/10/12 05:55:13;;;;;;;11.97;4.70;;;;;;;;;;5068917;28;20181;-73
2022/10/12 05:57:39;;;;;;;11.40;4.90;;;;;;;;;;5061873;28;20214;-74
2022/10/12 06:00:07;;;;;;;15.47;5.20;;;;;;;;;;5061873;28;20197;-79
2022/10/12 06:02:36;;;;;;;12.07;5.27;;;;;;;;;;5065508;28;20798;-76
2022/10/12 06:05:02;;;;;;;9.53;5.13;;;;;;;;;;5069139;28;20991;-75
2022/10/12 06:07:28;;;;;;;7.87;4.80;;;;;;;;;;5060023;28;20230;-75
2022/10/12 06:09:54;;;;;;;11.10;4.80;;;;;;;;;;5063585;28;20170;-75
2022/10/12 06:12:21;;;;;;;9.40;4.93;;;;;;;;;;5060476;28;20202;-75
2022/10/12 06:14:47;;;;;;;10.30;5.20;;;;;;;;;;5056759;28;20275;-75
2022/10/12 06:17:13;;;;;;;9.20;5.43;;;;;;;;;;5061060;28;20178;-75
2022/10/12 06:19:39;;;;;;;11.27;5.17;;;;;;;;;;5059308;28;20322;-75
2022/10/12 06:22:05;;;;;;;7.37;4.60;;;;;;;;;;5062152;28;20220;-75
2022/10/12 06:24:32;;;;;;;7.47;4.97;;;;;;;;;;5062514;28;20238;-73
2022/10/12 06:26:58;;;;;;;7.37;4.43;;;;;;;;;;5063086;28;20291;-73
2022/10/12 06:29:24;;;;;;;8.20;4.80;;;;;;;;;;5069151;28;20761;-73
2022/10/12 06:31:50;;;;;;;9.00;4.80;;;;;;;;;;5061182;28;20212;-73
2022/10/12 06:34:17;;;;;;;9.17;4.80;;;;;;;;;;5068139;28;20181;-73
2022/10/12 06:36:43;;;;;;;9.27;4.57;;;;;;;;;;5059661;28;20189;-73
2022/10/12 06:39:09;;;;;;;8.07;4.60;;;;;;;;;;5066349;28;20173;-73
2022/10/12 06:41:36;;;;;;;6.47;4.53;;;;;;;;;;5061754;28;20212;-73
2022/10/12 06:44:07;;;;;;;10.53;4.93;;;;;;;;;;5048603;28;20178;-73
2022/10/12 06:46:33;;;;;;;9.27;4.70;;;;;;;;;;5053506;28;20177;-74
2022/10/12 06:48:59;;;;;;;7.20;4.70;;;;;;;;;;5063392;28;20672;-74
2022/10/12 06:51:26;;;;;;;8.43;5.03;;;;;;;;;;5060730;28;20175;-74
2022/10/12 06:53:55;;;;;;;7.80;4.73;;;;;;;;;;5056743;28;20188;-73
2022/10/12 06:56:22;;;;;;;10.47;5.17;;;;;;;;;;5062415;28;20204;-75
2022/10/12 06:58:52;;;;;;;10.07;5.40;;;;;;;;;;5056421;28;20178;-76
2022/10/12 07:01:18;;;;;;;7.37;4.80;;;;;;;;;;5062329;28;20550;-73
2022/10/12 07:03:45;;;;;;;11.33;5.17;;;;;;;;;;5062365;28;20213;-72
2022/10/12 07:06:12;;;;;;;11.13;5.33;;;;;;;;;;5057423;28;20192;-73
2022/10/12 07:08:40;;;;;;;9.27;5.10;;;;;;;;;;5064658;28;20264;-72
2022/10/12 07:11:06;;;;;;;12.17;4.83;;;;;;;;;;5062756;28;20188;-72
2022/10/12 07:13:33;;;;;;;10.83;5.03;;;;;;;;;;5066902;28;20212;-72
2022/10/12 07:15:59;;;;;;;9.63;5.00;;;;;;;;;;5054907;28;20186;-72
2022/10/12 07:18:25;;;;;;;12.60;5.20;;;;;;;;;;5066054;28;20234;-72
2022/10/12 07:20:53;;;;;;;12.17;4.97;;;;;;;;;;5060487;28;20189;-72
2022/10/12 07:23:20;;;;;;;9.07;5.00;;;;;;;;;;5055143;28;20580;-72
2022/10/12 07:25:49;;;;;;;9.57;5.20;;;;;;;;;;5065195;28;20660;-72
2022/10/12 07:28:16;;;;;;;10.57;5.67;;;;;;;;;;5065635;28;20583;-72
2022/10/12 07:30:42;;;;;;;11.07;5.60;;;;;;;;;;5057003;28;20180;-72
2022/10/12 07:33:09;;;;;;;10.83;5.43;;;;;;;;;;5060779;28;20206;-72
2022/10/12 07:35:35;;;;;;;12.53;5.53;;;;;;;;;;5065619;28;20193;-73
2022/10/12 07:38:01;;;;;;;9.13;6.03;;;;;;;;;;5059211;28;20189;-72
2022/10/12 07:40:28;;;;;;;12.33;5.80;;;;;;;;;;5066161;28;20204;-72
2022/10/12 07:42:54;;;;;;;14.07;5.93;;;;;;;;;;5060981;28;20684;-72
2022/10/12 07:45:20;;;;;;;13.33;5.87;;;;;;;;;;5050012;28;20181;-72
2022/10/12 07:47:46;;;;;;;11.63;6.00;;;;;;;;;;5060679;28;20192;-72
2022/10/12 07:50:13;;;;;;;10.27;6.67;;;;;;;;;;5064189;28;20177;-72
2022/10/12 07:52:39;;;;;;;8.97;5.80;;;;;;;;;;5054206;28;20212;-72
2022/10/12 07:55:06;;;;;;;8.23;5.47;;;;;;;;;;5059486;28;20204;-72
2022/10/12 07:57:32;;;;;;;8.17;5.70;;;;;;;;;;5058254;28;20197;-72
2022/10/12 07:59:59;;;;;;;10.77;6.00;;;;;;;;;;5063153;28;20189;-72
2022/10/12 08:02:25;;;;;;;10.73;6.37;;;;;;;;;;5074455;28;20212;-73
2022/10/12 08:04:52;;;;;;;10.43;5.83;;;;;;;;;;5065272;28;20189;-73
2022/10/12 08:07:18;;;;;;;8.87;5.07;;;;;;;;;;5063890;28;20255;-72
2022/10/12 08:09:44;;;;;;;8.90;5.20;;;;;;;;;;5062748;28;20181;-72
2022/10/12 08:12:10;;;;;;;7.90;5.70;;;;;;;;;;5054036;28;20193;-75
2022/10/12 08:14:37;;;;;;;11.47;5.50;;;;;;;;;;5055743;28;20646;-73
2022/10/12 08:17:04;;;;;;;10.23;5.40;;;;;;;;;;5059779;28;20200;-72
2022/10/12 08:19:30;;;;;;;10.97;5.97;;;;;;;;;;5055717;28;20264;-72
2022/10/12 08:21:56;;;;;;;10.53;6.70;;;;;;;;;;5059756;28;20208;-72
2022/10/12 08:24:22;;;;;;;14.07;6.60;;;;;;;;;;5061909;28;20239;-72
2022/10/12 08:26:49;;;;;;;11.70;6.30;;;;;;;;;;5052799;28;20177;-72
2022/10/12 08:29:15;;;;;;;9.27;6.07;;;;;;;;;;5060468;28;20231;-73
2022/10/12 08:31:41;;;;;;;10.57;6.20;;;;;;;;;;5065490;28;20191;-72
2022/10/12 08:34:07;;;;;;;11.70;5.80;;;;;;;;;;5065047;28;20181;-73
2022/10/12 08:36:33;;;;;;;8.03;5.80;;;;;;;;;;5075542;28;20586;-71
2022/10/12 08:39:00;;;;;;;9.77;5.17;;;;;;;;;;5062947;28;20696;-73
2022/10/12 08:41:45;;;;;;;8.70;5.83;;;;;;;;;;5055674;28;22049;-73
2022/10/12 08:44:23;;;;;;;13.60;6.23;;;;;;;;;;5033902;28;20206;-73
2022/10/12 08:46:54;;;;;;;10.87;6.07;;;;;;;;;;5042169;28;20174;-73
2022/10/12 08:49:22;;;;;;;10.97;5.67;;;;;;;;;;5040909;28;20185;-73
2022/10/12 08:51:50;;;;;;;9.40;5.57;;;;;;;;;;5037731;28;20320;-73
2022/10/12 08:54:20;;;;;;;9.67;5.80;;;;;;;;;;5039610;28;20252;-73
2022/10/12 08:56:46;;;;;;;10.30;5.43;;;;;;;;;;5040673;28;20665;-73
2022/10/12 08:59:13;;;;;;;8.77;5.83;;;;;;;;;;5042402;28;20177;-73
2022/10/12 09:02:09;;;;;;;9.63;4.90;;;;;;;;;;5041079;28;20225;-73
2022/10/12 09:04:38;;;;;;;9.47;5.63;;;;;;;;;;4987450;28;20277;-73
2022/10/12 09:07:08;;;;;;;8.33;5.17;;;;;;;;;;5039310;28;20174;-73
2022/10/12 09:09:44;;;;;;;10.93;5.87;;;;;;;;;;5043855;28;20177;-72
2022/10/12 09:12:29;;;;;;;10.30;5.83;;;;;;;;;;5039579;28;20197;-73
2022/10/12 09:14:59;;;;;;;11.70;6.20;;;;;;;;;;5038887;28;20182;-73
2022/10/12 09:17:28;;;;;;;8.70;5.67;;;;;;;;;;5043087;28;20264;-73
2022/10/12 09:20:13;;;;;;;10.27;5.27;;;;;;;;;;5040346;28;20191;-73
2022/10/12 09:22:39;;;;;;;9.07;5.17;;;;;;;;;;5041255;28;20223;-73
2022/10/12 09:25:11;;;;;;;11.07;5.50;;;;;;;;;;5041341;28;20213;-73
2022/10/12 09:27:37;;;;;;;8.90;5.50;;;;;;;;;;5037522;28;20814;-75
2022/10/12 09:30:04;;;;;;;8.40;5.53;;;;;;;;;;5037896;28;20646;-73
2022/10/12 09:32:43;;;;;;;9.03;5.20;;;;;;;;;;5041084;28;20348;-73
2022/10/12 09:35:11;;;;;;;7.20;4.80;;;;;;;;;;5039234;28;20599;-74
2022/10/12 09:37:38;;;;;;;9.23;5.23;;;;;;;;;;5037344;28;20177;-73
2022/10/12 09:40:05;;;;;;;8.27;5.43;;;;;;;;;;5040551;28;20166;-73
2022/10/12 09:42:33;;;;;;;10.47;5.23;;;;;;;;;;5039489;28;20225;-73
2022/10/12 09:45:11;;;;;;;9.30;5.43;;;;;;;;;;5040475;28;20319;-73
2022/10/12 09:47:38;;;;;;;7.70;5.93;;;;;;;;;;5044413;28;20186;-75
2022/10/12 09:50:06;;;;;;;9.13;5.43;;;;;;;;;;5042790;28;20270;-75
2022/10/12 09:52:35;;;;;;;9.10;5.70;;;;;;;;;;5043277;28;20226;-75
2022/10/12 09:55:04;;;;;;;7.93;5.33;;;;;;;;;;5042033;28;20181;-75
2022/10/12 09:57:33;;;;;;;8.63;5.50;;;;;;;;;;5042362;28;20198;-75
2022/10/12 10:00:01;;;;;;;7.90;5.67;;;;;;;;;;5040793;28;20221;-72
2022/10/12 10:02:46;;;;;;;11.97;6.47;;;;;;;;;;5045878;28;20214;-73
2022/10/12 10:05:24;;;;;;;10.00;6.27;;;;;;;;;;5041182;28;20181;-73
2022/10/12 10:07:50;;;;;;;8.93;5.87;;;;;;;;;;5039755;28;20211;-75
2022/10/12 10:10:23;;;;;;;7.63;5.47;;;;;;;;;;5041978;28;20179;-75
2022/10/12 10:12:49;;;;;;;9.97;6.03;;;;;;;;;;5033796;28;20214;-75
2022/10/12 10:15:20;;;;;;;9.17;6.20;;;;;;;;;;5043958;28;20196;-75
2022/10/12 10:17:49;;;;;;;8.50;5.40;;;;;;;;;;5041418;28;20193;-73
2022/10/12 10:20:24;;;;;;;8.63;5.73;;;;;;;;;;5041193;28;20182;-73
2022/10/12 10:22:50;;;;;;;7.43;6.10;;;;;;;;;;5043370;28;20217;-73
2022/10/12 10:25:21;;;;;;;8.73;6.03;;;;;;;;;;5043426;28;20174;-73
2022/10/12 10:27:49;;;;;;;9.60;5.83;;;;;;;;;;5046163;28;20182;-73
2022/10/12 10:30:15;;;;;;;8.93;6.10;;;;;;;;;;5042325;28;20182;-73
2022/10/12 10:32:42;;;;;;;11.20;6.47;;;;;;;;;;5042194;28;20642;-76
2022/10/12 10:35:11;;;;;;;11.77;6.03;;;;;;;;;;5040983;28;20178;-75
2022/10/12 10:37:58;;;;;;;10.10;6.47;;;;;;;;;;5038928;28;20245;-74
2022/10/12 10:40:29;;;;;;;8.67;5.63;;;;;;;;;;5035204;28;20179;-74
2022/10/12 10:42:56;;;;;;;10.57;6.37;;;;;;;;;;5042846;28;20832;-74
2022/10/12 10:45:25;;;;;;;8.68;5.95;;;;;;;;;;5037291;28;20515;-74
2022/10/12 10:47:55;;;;;;;9.67;6.00;;;;;;;;;;5037443;28;20198;-74
2022/10/12 10:50:44;;;;;;;9.43;6.20;;;;;;;;;;5041301;28;20217;-77
2022/10/12 10:53:18;;;;;;;8.43;5.60;;;;;;;;;;5029418;28;20702;-74
2022/10/12 10:56:03;;;;;;;9.20;5.73;;;;;;;;;;5031607;28;20218;-75
2022/10/12 10:58:33;;;;;;;7.57;5.70;;;;;;;;;;5039221;28;20585;-74
2022/10/12 11:01:20;;;;;;;11.07;6.47;;;;;;;;;;5041600;28;20190;-74
2022/10/12 11:03:58;;;;;;;8.13;5.70;;;;;;;;;;5028269;28;20202;-73
2022/10/12 11:06:42;;;;;;;9.13;5.33;;;;;;;;;;5046053;28;20251;-74
2022/10/12 11:09:17;;;;;;;8.17;5.50;;;;;;;;;;5044401;28;20193;-73
2022/10/12 11:11:45;;;;;;;11.43;5.23;;;;;;;;;;5047023;28;20187;-74
2022/10/12 11:14:14;;;;;;;10.37;5.97;;;;;;;;;;5050615;28;20175;-74
2022/10/12 11:17:03;;;;;;;12.10;6.23;;;;;;;;;;5040124;28;20524;-73
2022/10/12 11:19:36;;;;;;;7.73;6.00;;;;;;;;;;5034662;28;20681;-75
2022/10/12 11:22:10;;;;;;;9.60;5.50;;;;;;;;;;5042794;28;20685;-73
2022/10/12 11:24:48;;;;;;;7.43;5.57;;;;;;;;;;5036476;28;20189;-75
2022/10/12 11:27:20;;;;;;;9.63;5.80;;;;;;;;;;5043734;28;20191;-75
2022/10/12 11:29:47;;;;;;;9.70;6.20;;;;;;;;;;5043761;28;20265;-77
2022/10/12 11:32:25;;;;;;;10.10;6.20;;;;;;;;;;5043726;28;20197;-73
2022/10/12 11:34:57;;;;;;;10.57;5.90;;;;;;;;;;5036094;28;20597;-79
2022/10/12 11:37:28;;;;;;;10.87;6.30;;;;;;;;;;5036385;28;20563;-73
2022/10/12 11:39:55;;;;;;;8.63;6.70;;;;;;;;;;5040203;28;20190;-74
2022/10/12 11:42:32;;;;;;;11.27;6.53;;;;;;;;;;5039311;28;20213;-74
2022/10/12 11:45:01;;;;;;;12.07;6.33;;;;;;;;;;5039425;28;20221;-73
2022/10/12 11:47:39;;;;;;;13.40;7.30;;;;;;;;;;5037391;28;20174;-74
2022/10/12 11:50:14;;;;;;;9.80;6.30;;;;;;;;;;5044187;28;20200;-70
2022/10/12 11:52:43;;;;;;;11.63;7.40;;;;;;;;;;5042709;28;20208;-73
2022/10/12 11:55:23;;;;;;;8.93;7.00;;;;;;;;;;5040440;28;20190;-73
2022/10/12 11:57:50;;;;;;;10.57;6.53;;;;;;;;;;5033820;28;20240;-73
2022/10/12 12:00:23;;;;;;;11.63;7.50;;;;;;;;;;5009825;28;20205;-73
2022/10/12 12:02:53;;;;;;;11.87;7.40;;;;;;;;;;5030290;28;20217;-74
2022/10/12 12:05:19;;;;;;;11.50;7.27;;;;;;;;;;5039431;28;20189;-73
2022/10/12 12:07:47;;;;;;;9.33;7.00;;;;;;;;;;5029010;28;20175;-74
2022/10/12 12:10:26;;;;;;;10.27;6.80;;;;;;;;;;5030130;28;20182;-73
2022/10/12 12:13:16;;;;;;;12.27;7.03;;;;;;;;;;5055968;28;20262;-74
2022/10/12 12:15:42;;;;;;;10.80;7.03;;;;;;;;;;5040306;28;20193;-74
2022/10/12 12:18:14;;;;;;;14.40;6.90;;;;;;;;;;5035845;28;20182;-75
2022/10/12 12:20:43;;;;;;;10.47;6.33;;;;;;;;;;5041654;28;20197;-73
2022/10/12 12:23:18;;;;;;;14.13;7.30;;;;;;;;;;5041371;28;20362;-75
2022/10/12 12:25:44;;;;;;;11.87;6.27;;;;;;;;;;5042354;28;20810;-73
2022/10/12 12:28:19;;;;;;;10.50;6.50;;;;;;;;;;5030072;28;20265;-73
2022/10/12 12:30:56;;;;;;;8.77;5.93;;;;;;;;;;5039084;28;20185;-73
2022/10/12 12:33:22;;;;;;;9.00;6.40;;;;;;;;;;5038437;28;20197;-73
2022/10/12 12:36:03;;;;;;;10.47;6.07;;;;;;;;;;5032820;28;20887;-73
2022/10/12 12:38:31;;;;;;;9.93;6.30;;;;;;;;;;5039973;28;20217;-73
2022/10/12 12:41:02;;;;;;;10.47;6.40;;;;;;;;;;5042109;28;20569;-73
2022/10/12 12:43:28;;;;;;;10.43;6.73;;;;;;;;;;5039984;28;20218;-73
2022/10/12 12:45:57;;;;;;;9.60;6.20;;;;;;;;;;5041974;28;20277;-73
2022/10/12 12:48:47;;;;;;;9.30;5.50;;;;;;;;;;5039060;28;20214;-73
2022/10/12 12:51:24;;;;;;;15.53;6.20;;;;;;;;;;5024720;28;20179;-74
2022/10/12 12:53:52;;;;;;;10.17;6.70;;;;;;;;;;5042301;28;20208;-73
2022/10/12 12:56:37;;;;;;;10.60;6.47;;;;;;;;;;5037767;28;20691;-74
2022/10/12 12:59:22;;;;;;;8.23;5.67;;;;;;;;;;5033485;28;20201;-73
2022/10/12 13:01:57;;;;;;;9.77;6.20;;;;;;;;;;5042898;28;20217;-73
2022/10/12 13:04:32;;;;;;;10.23;7.10;;;;;;;;;;5038500;28;20218;-74
2022/10/12 13:07:17;;;;;;;10.70;7.47;;;;;;;;;;5038837;28;20201;-73
2022/10/12 13:10:02;;;;;;;10.63;7.57;;;;;;;;;;5037043;28;20254;-73
2022/10/12 13:12:28;;;;;;;11.17;7.37;;;;;;;;;;5039213;28;20201;-74
2022/10/12 13:15:13;;;;;;;13.40;7.80;;;;;;;;;;5036655;28;20280;-73
2022/10/12 13:17:50;;;;;;;12.57;7.60;;;;;;;;;;5032256;28;20245;-73
2022/10/12 13:20:17;;;;;;;10.80;7.40;;;;;;;;;;5040705;28;20186;-74
2022/10/12 13:22:44;;;;;;;8.30;7.20;;;;;;;;;;5046646;28;20213;-74
2022/10/12 13:25:34;;;;;;;11.17;7.77;;;;;;;;;;5042991;28;20205;-77
2022/10/12 13:28:02;;;;;;;11.63;7.20;;;;;;;;;;5032884;28;20183;-75
2022/10/12 13:30:34;;;;;;;11.47;8.50;;;;;;;;;;5034699;28;20728;-74
2022/10/12 13:33:06;;;;;;;11.50;8.03;;;;;;;;;;5037486;28;20229;-73
2022/10/12 13:35:34;;;;;;;10.17;7.53;;;;;;;;;;5058914;28;20664;-74
2022/10/12 13:38:02;;;;;;;9.00;6.87;;;;;;;;;;5048749;28;20190;-74
2022/10/12 13:40:31;;;;;;;11.77;8.17;;;;;;;;;;5037609;28;20190;-74
2022/10/12 13:43:16;;;;;;;8.47;6.67;;;;;;;;;;5049089;28;20686;-74
2022/10/12 13:45:46;;;;;;;12.03;6.73;;;;;;;;;;5045118;28;20181;-73
2022/10/12 13:48:17;;;;;;;9.13;6.17;;;;;;;;;;5042256;28;20194;-73
2022/10/12 13:50:50;;;;;;;9.13;6.43;;;;;;;;;;5032026;28;20663;-73
2022/10/12 13:53:16;;;;;;;12.73;7.40;;;;;;;;;;5031364;28;20709;-73
2022/10/12 13:55:42;;;;;;;8.47;6.57;;;;;;;;;;5049594;28;20189;-74
2022/10/12 13:58:22;;;;;;;9.73;6.93;;;;;;;;;;5049293;28;20198;-74
2022/10/12 14:00:48;;;;;;;10.93;6.63;;;;;;;;;;5037909;28;20202;-73
2022/10/12 14:03:14;;;;;;;8.83;5.97;;;;;;;;;;5039511;28;20210;-73
2022/10/12 14:05:45;;;;;;;10.03;5.80;;;;;;;;;;5043060;28;20735;-74
2022/10/12 14:08:16;;;;;;;11.13;5.47;;;;;;;;;;5049191;28;20178;-73
2022/10/12 14:10:48;;;;;;;8.90;6.13;;;;;;;;;;5038827;28;20178;-73
2022/10/12 14:13:15;;;;;;;11.67;6.00;;;;;;;;;;5042316;28;20228;-73
2022/10/12 14:15:42;;;;;;;9.53;6.00;;;;;;;;;;5042111;28;20188;-73
2022/10/12 14:18:27;;;;;;;10.23;6.10;;;;;;;;;;5043341;28;20213;-73
2022/10/12 14:21:04;;;;;;;10.80;6.50;;;;;;;;;;5041768;28;20195;-73
2022/10/12 14:23:30;;;;;;;10.77;6.60;;;;;;;;;;5044608;28;20640;-73
2022/10/12 14:25:56;;;;;;;11.07;6.03;;;;;;;;;;5043767;28;20179;-73
2022/10/12 14:28:30;;;;;;;11.03;6.70;;;;;;;;;;5044962;28;20894;-73
2022/10/12 14:30:56;;;;;;;9.83;6.43;;;;;;;;;;5042199;28;20817;-73
2022/10/12 14:33:24;;;;;;;13.03;6.87;;;;;;;;;;5037866;28;20285;-73
2022/10/12 14:35:51;;;;;;;10.30;6.43;;;;;;;;;;5045396;28;20200;-73
2022/10/12 14:38:37;;;;;;;8.93;6.60;;;;;;;;;;5045460;28;20186;-73
2022/10/12 14:41:21;;;;;;;12.40;5.87;;;;;;;;;;5037643;28;20244;-73
2022/10/12 14:44:02;;;;;;;8.67;6.60;;;;;;;;;;5041061;28;20213;-73
2022/10/12 14:46:28;;;;;;;11.53;6.10;;;;;;;;;;5042914;28;20265;-73
2022/10/12 14:48:54;;;;;;;12.00;6.23;;;;;;;;;;5046412;28;20178;-73
2022/10/12 14:51:20;;;;;;;8.50;6.00;;;;;;;;;;5044502;28;20189;-73